Homer, AK (99603)

10:37 PM AKST on February 09, 2016 (GMT -0900)
KAKHOMER5 | | Change Station
CLOSE
Current Station
Personal Weather Station
Location: Homer, AK
Elevation: 1152 ft
Nearby Weather Stations

Elev 1152 ft 59.67 °N, 151.49 °W | Updated 10 seconds ago

Clear
Clear
35.0 °F
Feels Like 27 °F
N
10.0
Wind Variable Wind from NNW
Gusts 17.0 mph

Today
High -- | Low -- °F
--% Chance of Precip.
Yesterday
High -- | Low -- °F
Precip. -- in
Pressure 29.68 in
Visibility 10.0 miles
Clouds Clear
Windchill 27 °F
Dew Point 23 °F
Humidity 61%
Rainfall 0.00 in
Snow Depth Not available.
8:59 AM 5:42 PM
Waxing Crescent, 4% visible
METAR PAHO 100653Z AUTO 08014KT 10SM CLR 01/M03 A2968 RMK SLP050 T00061028 TSNO VIA AUTODIAL
Pressure 29.68 in
Visibility 10.0 miles
Clouds Clear
Windchill 27 °F
Dew Point 23 °F
Humidity 61%
Rainfall 0.00 in
Snow Depth Not available.
8:59 AM 5:42 PM
Waxing Crescent, 4% visible
METAR PAHO 100653Z AUTO 08014KT 10SM CLR 01/M03 A2968 RMK SLP050 T00061028 TSNO VIA AUTODIAL

10-Day Weather Forecast

Almanac

Astronomy

Feb. 09, 2016 Rise Set
Actual Time
Civil Twilight
Nautical Twilight
Astronomical Twilight
Moon
Length of Visible Light
Length of Day
Tomorrow will be .
, % of the Moon is Illuminated

Today's Extremes

State Highs State Lows

Community

WunderPhotos

Upload Photos

1,891,826 photos uploaded!

WunderBlog® & News

Nearby

Air Quality

  Air Quality AQ Index Pollutant
Not available.

Snow Depth

Station Depth Elevation

Earthquake Activity

City Distance Mag. Time & Date
Minimum magnitude displayed is 2.5.

Coastal Water Temperatures

Place Temperature

Stations

Nearby Weather Stations

Station Location Temp. Windchill Dew Point Humidity Wind Precip. Elev Updated Type
                   

Watches & Warnings

There are currently no watches in effect.